createdAt,value
2018-01-17T00:01:39.995Z,13.93
2018-01-17T00:04:09.773Z,12.00
2018-01-17T00:06:36.415Z,5.80
2018-01-17T00:09:03.978Z,13.73
2018-01-17T00:11:30.726Z,9.13
2018-01-17T00:14:03.301Z,11.80
2018-01-17T00:16:30.907Z,5.87
2018-01-17T00:18:58.311Z,6.97
2018-01-17T00:21:25.892Z,7.72
2018-01-17T00:23:52.440Z,4.35
2018-01-17T00:26:20.970Z,8.00
2018-01-17T00:28:47.691Z,6.60
2018-01-17T00:31:15.211Z,6.65
2018-01-17T00:33:41.635Z,9.65
2018-01-17T00:36:08.051Z,9.38
2018-01-17T00:38:34.445Z,8.02
2018-01-17T00:41:00.966Z,8.90
2018-01-17T00:43:27.457Z,5.07
2018-01-17T00:45:53.892Z,7.35
2018-01-17T00:48:20.275Z,8.15
2018-01-17T00:50:51.095Z,7.72
2018-01-17T00:53:17.411Z,7.75
2018-01-17T00:59:13.345Z,7.60
2018-01-17T01:01:39.860Z,10.07
2018-01-17T01:04:06.298Z,7.00
2018-01-17T01:06:32.802Z,6.37
2018-01-17T01:08:59.119Z,12.70
2018-01-17T01:11:25.602Z,6.65
2018-01-17T01:13:52.070Z,5.35
2018-01-17T01:16:18.474Z,8.13
2018-01-17T01:18:44.906Z,3.80
2018-01-17T01:21:11.262Z,6.18
2018-01-17T01:23:37.639Z,5.60
2018-01-17T01:26:03.766Z,9.93
2018-01-17T01:28:30.978Z,6.07
2018-01-17T01:31:12.896Z,7.22
2018-01-17T01:33:39.658Z,4.35
2018-01-17T01:38:47.266Z,6.53
2018-01-17T01:41:15.088Z,8.15
2018-01-17T01:43:43.710Z,9.70
2018-01-17T01:46:13.742Z,5.75
2018-01-17T01:48:52.563Z,5.15
2018-01-17T01:51:19.451Z,6.50
2018-01-17T01:53:50.901Z,7.37
2018-01-17T01:56:17.551Z,7.22
2018-01-17T01:58:44.126Z,4.15
2018-01-17T02:01:10.517Z,3.60
2018-01-17T02:03:37.306Z,3.90
2018-01-17T02:06:04.593Z,3.00
2018-01-17T02:08:32.178Z,3.33
2018-01-17T02:10:58.740Z,4.20
2018-01-17T02:13:25.195Z,1.45
2018-01-17T02:15:51.551Z,3.17
2018-01-17T02:18:17.938Z,2.25
2018-01-17T02:20:44.342Z,0.75
2018-01-17T02:23:11.380Z,0.70
2018-01-17T02:25:37.929Z,0.70
2018-01-17T02:28:05.079Z,1.00
2018-01-17T02:30:31.600Z,1.15
2018-01-17T02:32:57.929Z,1.40
2018-01-17T02:35:24.345Z,1.23
2018-01-17T02:37:51.014Z,1.77
2018-01-17T02:40:29.712Z,1.62
2018-01-17T02:42:56.267Z,0.93
2018-01-17T02:45:22.614Z,0.90
2018-01-17T02:47:49.006Z,0.70
2018-01-17T02:50:17.058Z,1.10
2018-01-17T02:52:43.370Z,1.70
2018-01-17T02:55:09.716Z,0.70
2018-01-17T02:57:36.188Z,2.70
2018-01-17T03:00:02.528Z,1.35
2018-01-17T03:02:28.895Z,0.77
2018-01-17T03:04:55.422Z,0.95
2018-01-17T03:07:21.992Z,1.40
2018-01-17T03:09:48.565Z,1.17
2018-01-17T03:12:16.732Z,1.50
2018-01-17T03:14:43.951Z,1.98
2018-01-17T03:17:12.721Z,3.47
2018-01-17T03:19:39.200Z,1.40
2018-01-17T03:22:06.664Z,1.52
2018-01-17T03:24:34.934Z,1.60
2018-01-17T03:27:03.244Z,1.30
2018-01-17T03:29:33.968Z,1.70
2018-01-17T03:32:00.531Z,2.85
2018-01-17T03:34:26.989Z,1.92
2018-01-17T03:39:30.946Z,2.70
2018-01-17T03:41:58.449Z,2.45
2018-01-17T03:44:25.070Z,5.18
2018-01-17T03:46:51.532Z,3.53
2018-01-17T03:49:18.000Z,4.47
2018-01-17T03:51:44.449Z,5.75
2018-01-17T03:54:12.013Z,4.50
2018-01-17T03:56:38.712Z,4.55
2018-01-17T03:59:05.384Z,4.40
2018-01-17T04:01:32.750Z,5.80
2018-01-17T04:04:02.587Z,5.93
2018-01-17T04:06:29.594Z,6.50
2018-01-17T04:09:02.943Z,6.45
2018-01-17T04:11:33.914Z,7.03
2018-01-17T04:14:15.777Z,7.50
2018-01-17T04:16:42.420Z,6.72
2018-01-17T04:19:28.623Z,6.00
2018-01-17T04:21:57.501Z,6.22
2018-01-17T04:24:23.715Z,7.55
2018-01-17T04:27:01.547Z,13.07
2018-01-17T04:29:35.517Z,6.12
2018-01-17T04:32:02.027Z,6.65
2018-01-17T04:34:28.402Z,4.95
2018-01-17T04:36:54.890Z,8.90
2018-01-17T04:39:22.472Z,6.62
2018-01-17T04:41:49.312Z,5.32
2018-01-17T04:44:21.216Z,9.07
2018-01-17T04:46:48.207Z,5.10
2018-01-17T04:49:21.067Z,21.42
2018-01-17T04:51:47.536Z,9.48
2018-01-17T04:54:37.795Z,6.68
2018-01-17T04:57:04.610Z,6.12
2018-01-17T04:59:31.085Z,5.12
2018-01-17T05:02:00.603Z,5.82
2018-01-17T05:04:27.099Z,4.87
2018-01-17T05:06:56.555Z,10.55
2018-01-17T05:09:23.031Z,5.85
2018-01-17T05:11:49.501Z,5.60
2018-01-17T05:14:16.215Z,7.70
2018-01-17T05:16:42.792Z,6.30
2018-01-17T05:19:10.843Z,7.43
2018-01-17T05:21:39.570Z,7.85
2018-01-17T05:24:07.034Z,14.48
2018-01-17T05:26:33.358Z,6.03
2018-01-17T05:29:00.342Z,7.75
2018-01-17T05:31:27.021Z,7.65
2018-01-17T05:33:53.654Z,8.38
2018-01-17T05:36:20.083Z,10.57
2018-01-17T05:38:46.533Z,7.05
2018-01-17T05:41:13.135Z,7.37
2018-01-17T05:43:39.527Z,6.30
2018-01-17T05:46:05.925Z,12.32
2018-01-17T05:48:36.688Z,7.95
2018-01-17T05:51:04.283Z,9.43
2018-01-17T05:53:31.026Z,9.95
2018-01-17T05:55:57.435Z,10.77
2018-01-17T05:58:24.751Z,7.72
2018-01-17T06:00:52.570Z,12.50
2018-01-17T06:03:26.342Z,10.48
2018-01-17T06:05:52.763Z,10.40
2018-01-17T06:08:19.800Z,9.32
2018-01-17T06:10:46.871Z,11.55
2018-01-17T06:13:13.427Z,22.58
2018-01-17T06:18:14.715Z,10.95
2018-01-17T06:20:41.135Z,10.85
2018-01-17T06:25:51.072Z,11.05
2018-01-17T06:31:27.182Z,16.48
2018-01-17T06:33:53.514Z,15.77
2018-01-17T06:36:19.817Z,11.32
2018-01-17T06:41:46.504Z,8.90
2018-01-17T06:44:13.083Z,8.63
2018-01-17T06:46:39.605Z,13.73
2018-01-17T06:49:10.292Z,11.52
2018-01-17T06:51:37.069Z,10.20
2018-01-17T06:54:04.046Z,13.27
2018-01-17T06:56:30.819Z,14.63
2018-01-17T06:58:58.364Z,10.65
2018-01-17T07:01:29.947Z,11.50
2018-01-17T07:03:57.762Z,12.70
2018-01-17T07:06:27.516Z,14.18
2018-01-17T07:08:56.722Z,12.40
2018-01-17T07:11:23.286Z,17.23
2018-01-17T07:16:57.514Z,11.00
2018-01-17T07:19:25.688Z,5.78
2018-01-17T07:21:56.462Z,7.30
2018-01-17T07:24:22.860Z,8.90
2018-01-17T07:26:51.592Z,5.82
2018-01-17T07:29:57.080Z,7.85
2018-01-17T07:32:32.272Z,8.35
2018-01-17T07:34:58.797Z,9.73
2018-01-17T07:37:25.223Z,6.62
2018-01-17T07:40:00.545Z,12.32
2018-01-17T07:45:13.513Z,14.80
2018-01-17T07:47:40.748Z,7.97
2018-01-17T07:50:07.439Z,6.82
2018-01-17T07:52:36.783Z,4.43
2018-01-17T07:55:05.858Z,11.05
2018-01-17T07:57:35.687Z,8.57
2018-01-17T08:02:49.139Z,11.82
2018-01-17T08:05:19.598Z,8.68
2018-01-17T08:07:49.933Z,11.90
2018-01-17T08:10:17.068Z,11.15
2018-01-17T08:15:18.414Z,8.50
2018-01-17T08:17:45.223Z,11.38
2018-01-17T08:20:12.860Z,9.55
2018-01-17T08:22:39.449Z,12.68
2018-01-17T08:25:26.978Z,9.95
2018-01-17T08:27:55.957Z,13.43
2018-01-17T08:30:25.084Z,18.05
2018-01-17T08:32:53.416Z,11.93
2018-01-17T08:35:29.457Z,12.37
2018-01-17T08:37:57.349Z,15.30
2018-01-17T08:40:23.958Z,18.17
2018-01-17T08:42:50.491Z,14.82
2018-01-17T08:45:17.795Z,11.88
2018-01-17T08:50:23.320Z,16.50
2018-01-17T08:52:49.918Z,12.45
2018-01-17T09:07:55.428Z,13.77
2018-01-17T09:10:21.907Z,13.95
2018-01-17T09:12:51.042Z,12.80
2018-01-17T09:15:19.198Z,16.30
2018-01-17T09:17:50.707Z,16.12
2018-01-17T09:20:16.950Z,14.13
2018-01-17T09:22:43.198Z,12.10
2018-01-17T09:25:09.611Z,14.90
2018-01-17T09:27:39.661Z,8.55
2018-01-17T09:30:09.374Z,12.60
2018-01-17T09:32:38.974Z,13.77
2018-01-17T09:35:05.373Z,16.80
2018-01-17T09:37:33.046Z,12.90
2018-01-17T09:40:00.827Z,14.82
2018-01-17T09:42:27.489Z,11.70
2018-01-17T09:44:55.300Z,15.40
2018-01-17T09:50:34.631Z,13.30
2018-01-17T09:53:01.294Z,11.12
2018-01-17T09:55:30.420Z,8.50
2018-01-17T09:57:57.576Z,14.35
2018-01-17T10:00:23.974Z,12.48
2018-01-17T10:02:54.418Z,10.55
2018-01-17T10:05:24.333Z,12.10
2018-01-17T10:08:07.860Z,16.33
2018-01-17T10:11:01.877Z,14.38
2018-01-17T10:16:44.680Z,11.60
2018-01-17T10:22:12.996Z,12.75
2018-01-17T10:24:44.330Z,16.75
2018-01-17T10:27:27.403Z,11.40
2018-01-17T10:29:58.859Z,15.70
2018-01-17T10:32:31.838Z,11.12
2018-01-17T10:35:31.662Z,10.38
2018-01-17T10:40:50.970Z,11.43
2018-01-17T10:43:38.303Z,8.40
2018-01-17T10:46:05.015Z,13.18
2018-01-17T10:48:34.416Z,9.73
2018-01-17T10:51:05.357Z,9.32
2018-01-17T10:53:36.866Z,10.40
2018-01-17T10:56:16.476Z,10.48
2018-01-17T10:58:43.947Z,12.37
2018-01-17T11:01:33.969Z,12.55
2018-01-17T11:04:00.970Z,8.73
2018-01-17T11:06:30.168Z,9.68
2018-01-17T11:09:05.771Z,10.38
2018-01-17T11:11:38.221Z,10.52
2018-01-17T11:14:04.998Z,9.57
2018-01-17T11:16:31.755Z,8.93
2018-01-17T11:22:55.637Z,8.30
2018-01-17T11:28:33.863Z,10.18
2018-01-17T11:31:00.938Z,3.97
2018-01-17T11:33:27.638Z,12.73
2018-01-17T11:35:55.585Z,6.70
2018-01-17T11:38:21.938Z,10.23
2018-01-17T11:40:48.250Z,11.75
2018-01-17T11:43:15.020Z,10.45
2018-01-17T11:45:42.868Z,15.80
2018-01-17T11:48:09.530Z,11.52
2018-01-17T11:53:47.106Z,9.98
2018-01-17T11:56:14.533Z,10.35
2018-01-17T11:58:41.453Z,12.57
2018-01-17T12:01:09.656Z,13.60
2018-01-17T12:03:36.033Z,14.48
2018-01-17T12:06:10.235Z,11.90
2018-01-17T12:08:37.287Z,12.90
2018-01-17T12:11:04.826Z,11.82
2018-01-17T12:13:34.803Z,13.85
2018-01-17T12:16:02.492Z,14.18
2018-01-17T12:18:33.162Z,14.07
2018-01-17T12:20:59.622Z,17.02
2018-01-17T12:23:26.124Z,11.63
2018-01-17T12:25:52.984Z,12.98
2018-01-17T12:28:19.735Z,20.58
2018-01-17T12:30:47.005Z,14.60
2018-01-17T12:35:51.066Z,13.30
2018-01-17T12:38:19.366Z,14.70
2018-01-17T12:40:47.067Z,15.30
2018-01-17T12:43:13.758Z,12.90
2018-01-17T12:45:40.279Z,15.30
2018-01-17T12:48:12.498Z,13.55
2018-01-17T12:50:40.487Z,13.23
2018-01-17T12:53:11.131Z,13.13
2018-01-17T12:55:38.671Z,14.32
2018-01-17T12:58:06.353Z,12.18
2018-01-17T13:00:38.331Z,9.73
2018-01-17T13:03:04.670Z,12.43
2018-01-17T13:05:31.924Z,13.15
2018-01-17T13:08:00.485Z,15.07
2018-01-17T13:10:26.854Z,10.15
2018-01-17T13:12:53.337Z,11.60
2018-01-17T13:15:26.352Z,14.02
2018-01-17T13:17:58.496Z,14.13
2018-01-17T13:20:52.404Z,17.90
2018-01-17T13:23:30.240Z,11.12
2018-01-17T13:25:57.365Z,9.70
2018-01-17T13:28:27.363Z,14.93
2018-01-17T13:30:53.828Z,17.45
2018-01-17T13:33:20.270Z,9.80
2018-01-17T13:35:46.544Z,9.20
2018-01-17T13:38:15.869Z,12.75
2018-01-17T13:40:55.322Z,13.50
2018-01-17T13:43:22.142Z,11.68
2018-01-17T13:45:51.404Z,12.55
2018-01-17T13:48:17.880Z,15.23
2018-01-17T13:50:50.604Z,11.05
2018-01-17T13:56:20.050Z,8.23
2018-01-17T13:58:46.795Z,9.88
2018-01-17T14:01:18.143Z,12.98
2018-01-17T14:03:54.500Z,15.93
2018-01-17T14:06:27.653Z,13.15
2018-01-17T14:08:54.038Z,11.57
2018-01-17T14:11:29.016Z,9.07
2018-01-17T14:19:44.581Z,6.18
2018-01-17T14:25:10.224Z,13.23
2018-01-17T14:27:36.989Z,10.85
2018-01-17T14:30:04.139Z,8.25
2018-01-17T14:35:31.692Z,10.88
2018-01-17T14:38:04.951Z,8.18
2018-01-17T14:40:41.882Z,18.80
2018-01-17T14:43:14.166Z,8.90
2018-01-17T14:45:40.812Z,9.18
2018-01-17T14:48:07.377Z,12.02
2018-01-17T14:50:48.113Z,9.18
2018-01-17T15:05:57.889Z,14.20
2018-01-17T15:08:28.189Z,10.13
2018-01-17T15:10:54.319Z,10.45
2018-01-17T15:13:22.364Z,9.80
2018-01-17T15:15:48.655Z,8.88
2018-01-17T15:18:14.827Z,12.55
2018-01-17T15:20:56.618Z,9.10
2018-01-17T15:23:28.810Z,9.43
2018-01-17T15:25:55.127Z,10.50
2018-01-17T15:28:21.323Z,7.78
2018-01-17T15:30:47.487Z,12.40
2018-01-17T15:36:26.809Z,11.18
2018-01-17T15:39:04.638Z,10.55
2018-01-17T15:44:16.102Z,12.15
2018-01-17T15:46:56.767Z,11.35
2018-01-17T15:49:23.246Z,10.43
2018-01-17T15:51:49.928Z,8.65
2018-01-17T15:57:29.018Z,17.10
2018-01-17T16:00:06.820Z,8.20
2018-01-17T16:05:32.787Z,8.98
2018-01-17T16:10:52.481Z,15.98
2018-01-17T16:13:27.420Z,11.38
2018-01-17T16:15:53.750Z,11.20
2018-01-17T16:18:20.146Z,14.02
2018-01-17T16:20:46.653Z,13.50
2018-01-17T16:23:27.220Z,12.57
2018-01-17T16:25:57.580Z,9.15
2018-01-17T16:31:04.377Z,8.75
2018-01-17T16:33:32.587Z,20.20
2018-01-17T16:35:58.837Z,14.43
2018-01-17T16:38:25.021Z,11.27
2018-01-17T16:40:54.768Z,21.15
2018-01-17T16:46:28.212Z,12.65
2018-01-17T16:51:54.148Z,16.98
2018-01-17T16:57:20.492Z,10.00
2018-01-17T16:59:47.036Z,15.77
2018-01-17T17:08:26.808Z,12.07
2018-01-17T17:10:54.028Z,14.52
2018-01-17T17:13:38.007Z,8.88
2018-01-17T17:16:04.494Z,16.90
2018-01-17T17:18:30.940Z,8.50
2018-01-17T17:23:59.318Z,13.32
2018-01-17T17:26:25.804Z,9.80
2018-01-17T17:28:52.218Z,11.65
2018-01-17T17:37:18.406Z,11.43
2018-01-17T17:45:53.845Z,13.73
2018-01-17T17:51:20.544Z,8.00
2018-01-17T17:53:52.964Z,15.95
2018-01-17T17:56:19.490Z,12.95
2018-01-17T17:58:45.907Z,12.77
2018-01-17T18:01:12.378Z,7.80
2018-01-17T18:03:51.467Z,15.25
2018-01-17T18:06:17.915Z,10.95
2018-01-17T18:08:54.098Z,10.10
2018-01-17T18:17:27.248Z,12.60
2018-01-17T18:19:58.671Z,16.15
2018-01-17T18:22:28.552Z,14.25
2018-01-17T18:24:55.295Z,13.57
2018-01-17T18:27:27.647Z,9.93
2018-01-17T18:29:54.105Z,12.18
2018-01-17T18:32:27.256Z,10.65
2018-01-17T18:34:55.540Z,10.65
2018-01-17T18:37:21.971Z,16.55
2018-01-17T18:45:58.670Z,14.20
2018-01-17T18:48:24.874Z,9.43
2018-01-17T18:54:06.568Z,17.17
2018-01-17T18:59:58.358Z,7.55
2018-01-17T19:02:38.098Z,10.52
2018-01-17T19:08:04.412Z,13.60
2018-01-17T19:10:30.737Z,12.75
2018-01-17T19:19:27.223Z,13.48
2018-01-17T19:21:53.639Z,15.63
2018-01-17T19:30:23.663Z,13.07
2018-01-17T19:32:59.074Z,16.02
2018-01-17T19:38:28.997Z,15.32
2018-01-17T19:46:52.574Z,9.52
2018-01-17T19:49:22.402Z,12.70
2018-01-17T19:58:01.289Z,11.27
2018-01-17T20:00:28.908Z,6.95
2018-01-17T20:02:55.661Z,10.35
2018-01-17T20:05:23.084Z,8.27
2018-01-17T20:07:51.986Z,9.95
2018-01-17T20:13:23.153Z,8.00
2018-01-17T20:15:54.342Z,14.77
2018-01-17T20:18:22.716Z,13.57
2018-01-17T20:20:52.645Z,12.10
2018-01-17T20:26:32.457Z,10.10
2018-01-17T20:44:19.922Z,6.93
2018-01-17T20:46:52.241Z,12.30
2018-01-17T20:49:34.631Z,12.10
2018-01-17T20:52:20.043Z,7.07
2018-01-17T20:54:51.942Z,9.15
2018-01-17T20:57:22.795Z,7.47
2018-01-17T20:59:50.759Z,10.85
2018-01-17T21:14:25.196Z,13.48
2018-01-17T21:19:52.381Z,11.55
2018-01-17T21:28:40.330Z,9.77
2018-01-17T21:36:57.432Z,8.27
2018-01-17T21:42:50.057Z,13.57
2018-01-17T21:48:05.488Z,12.90
2018-01-17T21:50:37.250Z,13.15
2018-01-17T21:59:23.326Z,8.20
2018-01-17T22:05:05.690Z,8.27
2018-01-17T22:07:41.855Z,14.87
2018-01-17T22:13:21.575Z,14.77
2018-01-17T22:16:03.508Z,13.55
2018-01-17T22:18:36.025Z,13.60
2018-01-17T22:21:02.628Z,20.83
2018-01-17T22:23:38.595Z,16.87
2018-01-17T22:26:18.956Z,15.65
2018-01-17T22:41:43.154Z,12.45
2018-01-17T22:47:20.426Z,12.48
2018-01-17T22:49:48.975Z,14.48
2018-01-17T22:55:13.457Z,11.30
2018-01-17T22:57:40.015Z,13.80
2018-01-17T23:03:06.984Z,12.57
2018-01-17T23:05:42.645Z,17.75
2018-01-17T23:08:09.979Z,12.43
2018-01-17T23:10:42.997Z,13.82
2018-01-17T23:16:22.569Z,8.93
2018-01-17T23:18:50.273Z,13.15
2018-01-17T23:21:18.678Z,18.70
2018-01-17T23:23:50.313Z,8.57
2018-01-17T23:26:17.031Z,11.35
2018-01-17T23:31:57.134Z,15.27
2018-01-17T23:34:24.775Z,11.05
2018-01-17T23:40:01.998Z,11.07
2018-01-17T23:42:29.986Z,13.45
2018-01-17T23:44:58.678Z,13.77
2018-01-17T23:47:25.579Z,15.43
2018-01-17T23:49:52.090Z,11.05
2018-01-17T23:52:20.095Z,19.52
2018-01-17T23:54:46.699Z,10.55
2018-01-17T23:57:16.451Z,21.65
